createdAt,value
2018-01-19T00:00:51.976Z,54.04
2018-01-19T00:01:52.280Z,54.68
2018-01-19T00:02:51.929Z,54.59
2018-01-19T00:03:51.935Z,54.3
2018-01-19T00:04:51.936Z,54.66
2018-01-19T00:05:51.937Z,54.7
2018-01-19T00:06:51.934Z,54.38
2018-01-19T00:07:51.974Z,54.42
2018-01-19T00:08:51.941Z,54.73
2018-01-19T00:09:51.936Z,54.4
2018-01-19T00:10:51.933Z,54.46
2018-01-19T00:11:51.935Z,54.44
2018-01-19T00:12:51.937Z,54.35
2018-01-19T00:13:52.067Z,54.15
2018-01-19T00:14:51.943Z,53.74
2018-01-19T00:15:51.944Z,53.72
2018-01-19T00:16:51.946Z,53.71
2018-01-19T00:17:51.945Z,53.99
2018-01-19T00:18:51.948Z,53.61
2018-01-19T00:19:52.107Z,53.95
2018-01-19T00:20:51.948Z,53.5
2018-01-19T00:21:51.953Z,53.44
2018-01-19T00:22:51.949Z,53.51
2018-01-19T00:23:51.948Z,53.54
2018-01-19T00:24:51.949Z,53.72
2018-01-19T00:25:52.310Z,53.65
2018-01-19T00:26:51.951Z,53.69
2018-01-19T00:27:51.961Z,53.96
2018-01-19T00:28:51.956Z,53.67
2018-01-19T00:29:51.952Z,53.97
2018-01-19T00:30:51.957Z,53.87
2018-01-19T00:31:51.998Z,53.5
2018-01-19T00:32:51.957Z,53.97
2018-01-19T00:33:51.958Z,53.38
2018-01-19T00:34:51.956Z,53.59
2018-01-19T00:35:51.957Z,53.61
2018-01-19T00:36:51.957Z,53.71
2018-01-19T00:37:52.409Z,53.5
2018-01-19T00:38:51.962Z,53.95
2018-01-19T00:39:51.967Z,53.79
2018-01-19T00:40:51.963Z,53.95
2018-01-19T00:41:51.959Z,53.71
2018-01-19T00:42:52.078Z,53.49
2018-01-19T00:43:52.090Z,53.6
2018-01-19T00:44:51.965Z,54.05
2018-01-19T00:45:51.966Z,53.73
2018-01-19T00:46:51.965Z,53.56
2018-01-19T00:47:51.965Z,53.79
2018-01-19T00:48:51.971Z,53.86
2018-01-19T00:49:52.006Z,53.86
2018-01-19T00:50:51.975Z,53.67
2018-01-19T00:51:51.971Z,54.03
2018-01-19T00:52:51.978Z,54.23
2018-01-19T00:53:51.975Z,53.87
2018-01-19T00:54:51.972Z,53.8
2018-01-19T00:55:52.008Z,53.85
2018-01-19T00:56:51.976Z,53.75
2018-01-19T00:57:51.975Z,54.13
2018-01-19T00:58:51.975Z,53.86
2018-01-19T00:59:51.982Z,53.75
2018-01-19T01:00:51.978Z,54.11
2018-01-19T01:01:52.128Z,54.08
2018-01-19T01:02:51.982Z,53.63
2018-01-19T01:03:51.978Z,53.87
2018-01-19T01:04:51.986Z,53.87
2018-01-19T01:05:51.979Z,54.22
2018-01-19T01:06:51.982Z,54.21
2018-01-19T01:07:52.031Z,53.86
2018-01-19T01:08:51.995Z,53.96
2018-01-19T01:09:51.982Z,53.78
2018-01-19T01:10:51.983Z,54.31
2018-01-19T01:11:51.986Z,54.27
2018-01-19T01:12:51.991Z,54.27
2018-01-19T01:13:52.136Z,53.98
2018-01-19T01:14:51.986Z,54.21
2018-01-19T01:15:52.038Z,54.19
2018-01-19T01:16:51.988Z,53.73
2018-01-19T01:17:51.991Z,54.26
2018-01-19T01:18:51.994Z,54.07
2018-01-19T01:19:52.439Z,53.85
2018-01-19T01:20:51.995Z,54.22
2018-01-19T01:21:51.992Z,53.9
2018-01-19T01:22:51.995Z,54.29
2018-01-19T01:23:51.994Z,54.03
2018-01-19T01:24:51.997Z,54.41
2018-01-19T01:25:52.024Z,53.95
2018-01-19T01:26:51.999Z,54.02
2018-01-19T01:27:51.997Z,53.88
2018-01-19T01:28:51.995Z,54.15
2018-01-19T01:29:51.998Z,54.39
2018-01-19T01:30:52.005Z,54
2018-01-19T01:31:52.465Z,54.11
2018-01-19T01:32:52.005Z,54.13
2018-01-19T01:33:52.006Z,53.96
2018-01-19T01:34:52.002Z,54.25
2018-01-19T01:35:52.005Z,54.44
2018-01-19T01:36:52.004Z,54.02
2018-01-19T01:37:52.364Z,54.09
2018-01-19T01:38:52.011Z,54.36
2018-01-19T01:39:52.006Z,54.5
2018-01-19T01:40:52.013Z,54.56
2018-01-19T01:41:52.011Z,54.31
2018-01-19T01:42:52.015Z,54.14
2018-01-19T01:43:52.053Z,54.49
2018-01-19T01:44:52.016Z,54.6
2018-01-19T01:45:52.011Z,54.17
2018-01-19T01:46:52.018Z,54.23
2018-01-19T01:47:52.013Z,54.62
2018-01-19T01:48:52.020Z,54.09
2018-01-19T01:49:52.381Z,54.18
2018-01-19T01:50:52.013Z,54.18
2018-01-19T01:51:52.017Z,54.8
2018-01-19T01:52:52.015Z,54.3
2018-01-19T01:53:52.024Z,54.27
2018-01-19T01:54:52.020Z,54.58
2018-01-19T01:55:52.070Z,54.63
2018-01-19T01:56:52.017Z,54.63
2018-01-19T01:57:52.018Z,54.05
2018-01-19T01:58:52.022Z,54.63
2018-01-19T01:59:52.028Z,54.18
2018-01-19T02:00:52.021Z,54.27
2018-01-19T02:01:52.489Z,54.6
2018-01-19T02:02:52.029Z,54.79
2018-01-19T02:03:52.035Z,54.66
2018-01-19T02:04:52.026Z,54.49
2018-01-19T02:05:52.046Z,54.37
2018-01-19T02:06:52.035Z,54.41
2018-01-19T02:07:52.063Z,54.85
2018-01-19T02:08:52.034Z,54.49
2018-01-19T02:09:52.031Z,54.75
2018-01-19T02:10:52.031Z,54.71
2018-01-19T02:11:52.029Z,54.47
2018-01-19T02:12:52.036Z,54.5
2018-01-19T02:13:52.088Z,54.47
2018-01-19T02:14:52.037Z,54.87
2018-01-19T02:15:52.034Z,54.98
2018-01-19T02:16:52.037Z,54.93
2018-01-19T02:17:52.038Z,54.78
2018-01-19T02:18:52.037Z,54.96
2018-01-19T02:19:52.395Z,54.65
2018-01-19T02:20:52.042Z,54.66
2018-01-19T02:21:52.040Z,54.61
2018-01-19T02:22:52.039Z,54.66
2018-01-19T02:23:52.044Z,54.81
2018-01-19T02:24:52.049Z,54.66
2018-01-19T02:25:52.087Z,54.71
2018-01-19T02:26:52.040Z,55.06
2018-01-19T02:27:52.050Z,54.89
2018-01-19T02:28:52.104Z,54.87
2018-01-19T02:29:52.047Z,54.8
2018-01-19T02:30:52.056Z,55.2
2018-01-19T02:31:52.204Z,54.77
2018-01-19T02:32:52.047Z,54.87
2018-01-19T02:33:52.049Z,54.76
2018-01-19T02:34:52.050Z,55.03
2018-01-19T02:35:52.048Z,54.98
2018-01-19T02:36:52.057Z,54.54
2018-01-19T02:37:52.088Z,54.95
2018-01-19T02:38:52.051Z,54.97
2018-01-19T02:39:52.062Z,54.7
2018-01-19T02:40:52.055Z,54.54
2018-01-19T02:41:52.059Z,54.84
2018-01-19T02:42:52.060Z,55.08
2018-01-19T02:43:52.088Z,54.71
2018-01-19T02:44:52.063Z,54.73
2018-01-19T02:45:52.060Z,54.95
2018-01-19T02:46:52.063Z,55.21
2018-01-19T02:47:52.062Z,55.06
2018-01-19T02:48:52.071Z,54.98
2018-01-19T02:49:52.102Z,54.98
2018-01-19T02:50:52.061Z,54.74
2018-01-19T02:51:52.069Z,54.68
2018-01-19T02:52:52.067Z,54.67
2018-01-19T02:53:52.066Z,54.8
2018-01-19T02:54:52.071Z,55.03
2018-01-19T02:55:52.069Z,55.17
2018-01-19T02:56:52.073Z,54.92
2018-01-19T02:57:52.070Z,54.64
2018-01-19T02:58:52.076Z,54.83
2018-01-19T02:59:52.065Z,54.3
2018-01-19T03:00:52.106Z,54.44
2018-01-19T03:01:52.077Z,54.28
2018-01-19T03:02:52.071Z,54.31
2018-01-19T03:03:52.075Z,54.59
2018-01-19T03:04:52.073Z,54.19
2018-01-19T03:05:52.079Z,54.73
2018-01-19T03:06:52.408Z,54.57
2018-01-19T03:07:52.077Z,54.68
2018-01-19T03:08:52.079Z,55.16
2018-01-19T03:09:52.078Z,54.79
2018-01-19T03:10:52.077Z,54.88
2018-01-19T03:11:52.084Z,54.67
2018-01-19T03:12:52.118Z,55.02
2018-01-19T03:13:52.080Z,54.58
2018-01-19T03:14:52.079Z,54.72
2018-01-19T03:15:52.083Z,54.36
2018-01-19T03:16:52.090Z,54.53
2018-01-19T03:17:52.200Z,54.18
2018-01-19T03:18:52.199Z,54.04
2018-01-19T03:19:52.154Z,54.16
2018-01-19T03:20:52.087Z,53.92
2018-01-19T03:21:52.088Z,54.06
2018-01-19T03:22:52.105Z,54.32
2018-01-19T03:23:52.085Z,54.07
2018-01-19T03:24:52.223Z,53.84
2018-01-19T03:25:52.099Z,54.28
2018-01-19T03:26:52.097Z,53.97
2018-01-19T03:27:52.098Z,53.86
2018-01-19T03:28:52.095Z,53.84
2018-01-19T03:29:52.097Z,54.05
2018-01-19T03:30:52.133Z,53.7
2018-01-19T03:31:52.104Z,53.86
2018-01-19T03:32:52.092Z,53.86
2018-01-19T03:33:52.100Z,54.13
2018-01-19T03:34:52.096Z,53.71
2018-01-19T03:35:52.099Z,53.78
2018-01-19T03:36:52.504Z,53.78
2018-01-19T03:37:52.109Z,54.17
2018-01-19T03:38:52.102Z,53.95
2018-01-19T03:39:52.100Z,53.75
2018-01-19T03:40:52.105Z,54.19
2018-01-19T03:41:52.106Z,54.08
2018-01-19T03:42:52.487Z,53.86
2018-01-19T03:43:52.106Z,54.04
2018-01-19T03:44:52.106Z,54.29
2018-01-19T03:45:52.112Z,53.96
2018-01-19T03:46:52.105Z,53.83
2018-01-19T03:47:52.109Z,54.18
2018-01-19T03:48:52.501Z,54.1
2018-01-19T03:49:52.114Z,53.86
2018-01-19T03:50:52.109Z,53.62
2018-01-19T03:51:52.114Z,53.6
2018-01-19T03:52:52.118Z,53.8
2018-01-19T03:53:52.115Z,53.68
2018-01-19T03:54:52.146Z,53.59
2018-01-19T03:55:52.113Z,53.46
2018-01-19T03:56:52.114Z,53.81
2018-01-19T03:57:52.136Z,53.67
2018-01-19T03:58:52.125Z,53.38
2018-01-19T03:59:52.121Z,53.82
2018-01-19T04:00:52.155Z,53.3
2018-01-19T04:01:52.128Z,53.32
2018-01-19T04:02:52.120Z,53.63
2018-01-19T04:03:52.126Z,53.7
2018-01-19T04:04:52.126Z,53.34
2018-01-19T04:05:52.124Z,53.72
2018-01-19T04:06:52.155Z,53.66
2018-01-19T04:07:52.121Z,53.63
2018-01-19T04:08:52.132Z,53.53
2018-01-19T04:09:52.129Z,53.23
2018-01-19T04:10:52.125Z,53.22
2018-01-19T04:11:52.124Z,53.59
2018-01-19T04:12:52.154Z,53.16
2018-01-19T04:13:52.127Z,53.46
2018-01-19T04:14:52.133Z,53.41
2018-01-19T04:15:52.125Z,53.52
2018-01-19T04:16:52.129Z,53.08
2018-01-19T04:17:52.129Z,53.13
2018-01-19T04:18:52.213Z,53.16
2018-01-19T04:19:52.134Z,52.98
2018-01-19T04:20:52.135Z,53.35
2018-01-19T04:21:52.138Z,53.41
2018-01-19T04:22:52.136Z,53.25
2018-01-19T04:23:52.135Z,53.22
2018-01-19T04:24:52.163Z,53.29
2018-01-19T04:25:52.140Z,53.6
2018-01-19T04:26:52.142Z,53.65
2018-01-19T04:27:52.144Z,53.8
2018-01-19T04:28:52.141Z,53.38
2018-01-19T04:29:52.137Z,53.46
2018-01-19T04:30:52.258Z,53.3
2018-01-19T04:31:52.173Z,53.34
2018-01-19T04:32:52.141Z,53.22
2018-01-19T04:33:52.149Z,53.67
2018-01-19T04:34:52.148Z,54.07
2018-01-19T04:35:52.144Z,53.78
2018-01-19T04:36:52.178Z,54.37
2018-01-19T04:37:52.156Z,53.84
2018-01-19T04:38:52.145Z,54.29
2018-01-19T04:39:52.150Z,53.87
2018-01-19T04:40:52.154Z,54.06
2018-01-19T04:41:52.149Z,53.55
2018-01-19T04:42:52.196Z,53.66
2018-01-19T04:43:52.154Z,53.63
2018-01-19T04:44:52.150Z,53.68
2018-01-19T04:45:52.154Z,53.42
2018-01-19T04:46:52.155Z,53.62
2018-01-19T04:47:52.158Z,53.82
2018-01-19T04:48:52.230Z,53.37
2018-01-19T04:49:52.160Z,53.44
2018-01-19T04:50:52.157Z,53.47
2018-01-19T04:51:52.160Z,53.47
2018-01-19T04:52:52.155Z,53.92
2018-01-19T04:53:52.160Z,53.48
2018-01-19T04:54:52.192Z,53.95
2018-01-19T04:55:52.173Z,54.03
2018-01-19T04:56:52.162Z,54.14
2018-01-19T04:57:52.158Z,54.14
2018-01-19T04:58:52.161Z,54.66
2018-01-19T04:59:52.173Z,54.25
2018-01-19T05:00:52.196Z,54.25
2018-01-19T05:01:52.174Z,55
2018-01-19T05:02:52.169Z,54.8
2018-01-19T05:03:52.169Z,54.71
2018-01-19T05:04:52.164Z,55.01
2018-01-19T05:05:52.169Z,55.2
2018-01-19T05:06:52.214Z,54.77
2018-01-19T05:07:52.171Z,55.74
2018-01-19T05:08:52.176Z,55.21
2018-01-19T05:09:52.171Z,55.63
2018-01-19T05:10:52.173Z,55.63
2018-01-19T05:11:52.176Z,54.89
2018-01-19T05:12:52.212Z,54.84
2018-01-19T05:13:52.185Z,54.31
2018-01-19T05:14:52.234Z,54.32
2018-01-19T05:15:52.176Z,54.18
2018-01-19T05:16:52.189Z,54.7
2018-01-19T05:17:52.184Z,54.82
2018-01-19T05:18:52.221Z,54.49
2018-01-19T05:19:52.192Z,54.39
2018-01-19T05:20:52.182Z,54.53
2018-01-19T05:21:52.179Z,54.91
2018-01-19T05:22:52.184Z,54.42
2018-01-19T05:23:52.179Z,54.73
2018-01-19T05:24:52.216Z,54.51
2018-01-19T05:25:52.185Z,54.82
2018-01-19T05:26:52.192Z,54.66
2018-01-19T05:27:52.188Z,54.66
2018-01-19T05:28:52.189Z,54.37
2018-01-19T05:29:52.190Z,54.59
2018-01-19T05:30:52.238Z,54.49
2018-01-19T05:31:52.193Z,54.82
2018-01-19T05:32:52.194Z,54.24
2018-01-19T05:33:52.244Z,54.77
2018-01-19T05:34:52.194Z,54.27
2018-01-19T05:35:52.198Z,54.26
2018-01-19T05:36:52.228Z,54.38
2018-01-19T05:37:52.204Z,53.99
2018-01-19T05:38:52.195Z,54.46
2018-01-19T05:39:52.197Z,54.35
2018-01-19T05:40:52.201Z,54.12
2018-01-19T05:41:52.201Z,54.2
2018-01-19T05:42:52.316Z,54.6
2018-01-19T05:43:52.196Z,54.78
2018-01-19T05:44:52.201Z,54.16
2018-01-19T05:45:52.198Z,54.68
2018-01-19T05:46:52.202Z,54.21
2018-01-19T05:47:52.202Z,54.08
2018-01-19T05:48:52.613Z,54.06
2018-01-19T05:49:52.207Z,54.45
2018-01-19T05:50:52.259Z,54.7
2018-01-19T05:51:52.204Z,54.61
2018-01-19T05:52:52.209Z,54.42
2018-01-19T05:53:52.206Z,54.38
2018-01-19T05:54:52.242Z,54.07
2018-01-19T05:55:52.208Z,54.08
2018-01-19T05:56:52.210Z,54.09
2018-01-19T05:57:52.227Z,54.47
2018-01-19T05:58:52.213Z,54.46
2018-01-19T05:59:52.220Z,54
2018-01-19T06:00:52.247Z,54.01
2018-01-19T06:01:52.217Z,54.38
2018-01-19T06:02:52.209Z,54.01
2018-01-19T06:03:52.211Z,54.34
2018-01-19T06:04:52.221Z,54.44
2018-01-19T06:05:52.220Z,53.99
2018-01-19T06:06:52.721Z,53.92
2018-01-19T06:07:52.216Z,54.17
2018-01-19T06:08:52.223Z,53.94
2018-01-19T06:09:52.222Z,54.1
2018-01-19T06:10:52.221Z,54.2
2018-01-19T06:11:52.224Z,54.1
2018-01-19T06:12:52.609Z,53.95
2018-01-19T06:13:52.224Z,54.26
2018-01-19T06:14:52.223Z,53.86
2018-01-19T06:15:52.235Z,53.84
2018-01-19T06:16:52.237Z,54.24
2018-01-19T06:17:52.224Z,54.04
2018-01-19T06:18:52.362Z,53.79
2018-01-19T06:19:52.229Z,54.22
2018-01-19T06:20:52.230Z,53.89
2018-01-19T06:21:52.225Z,53.81
2018-01-19T06:22:52.232Z,53.77
2018-01-19T06:23:52.235Z,54.09
2018-01-19T06:24:52.281Z,54.17
2018-01-19T06:25:52.234Z,53.62
2018-01-19T06:26:52.233Z,53.65
2018-01-19T06:27:52.232Z,54.15
2018-01-19T06:28:52.239Z,53.96
2018-01-19T06:29:52.239Z,54.21
2018-01-19T06:30:52.275Z,53.65
2018-01-19T06:31:52.240Z,53.64
2018-01-19T06:32:52.237Z,53.67
2018-01-19T06:33:52.238Z,54.03
2018-01-19T06:34:52.241Z,53.72
2018-01-19T06:35:52.244Z,53.56
2018-01-19T06:36:52.239Z,53.67
2018-01-19T06:37:52.243Z,53.87
2018-01-19T06:38:52.247Z,54.08
2018-01-19T06:39:52.248Z,53.63
2018-01-19T06:40:52.246Z,53.95
2018-01-19T06:41:52.278Z,53.99
2018-01-19T06:42:52.259Z,54
2018-01-19T06:43:52.246Z,53.98
2018-01-19T06:44:52.251Z,53.46
2018-01-19T06:45:52.248Z,53.5
2018-01-19T06:46:52.247Z,53.58
2018-01-19T06:47:52.596Z,53.52
2018-01-19T06:48:52.255Z,53.41
2018-01-19T06:49:52.250Z,53.65
2018-01-19T06:50:52.249Z,53.78
2018-01-19T06:51:52.255Z,53.51
2018-01-19T06:52:52.248Z,53.39
2018-01-19T06:53:52.292Z,53.46
2018-01-19T06:54:52.256Z,53.5
2018-01-19T06:55:52.256Z,53.62
2018-01-19T06:56:52.255Z,53.36
2018-01-19T06:57:52.328Z,53.82
2018-01-19T06:58:52.260Z,53.31
2018-01-19T06:59:52.569Z,53.87
2018-01-19T07:00:52.257Z,53.44
2018-01-19T07:01:52.257Z,53.42
2018-01-19T07:02:52.263Z,53.47
2018-01-19T07:03:52.267Z,53.44
2018-01-19T07:04:52.263Z,53.54
2018-01-19T07:05:52.307Z,53.74
2018-01-19T07:06:52.274Z,53.4
2018-01-19T07:07:52.264Z,53.84
2018-01-19T07:08:52.269Z,53.78
2018-01-19T07:09:52.264Z,53.81
2018-01-19T07:10:52.267Z,53.35
2018-01-19T07:11:52.728Z,53.32
2018-01-19T07:12:52.269Z,53.38
2018-01-19T07:13:52.270Z,53.41
2018-01-19T07:14:52.265Z,53.74
2018-01-19T07:15:52.269Z,53.42
2018-01-19T07:16:52.272Z,53.74
2018-01-19T07:17:52.321Z,53.28
2018-01-19T07:18:52.362Z,53.31
2018-01-19T07:19:52.282Z,53.67
2018-01-19T07:20:52.277Z,53.57
2018-01-19T07:21:52.274Z,53.69
2018-01-19T07:22:52.275Z,53.31
2018-01-19T07:23:52.332Z,53.29
2018-01-19T07:24:52.276Z,53.38
2018-01-19T07:25:52.279Z,53.3
2018-01-19T07:26:52.274Z,53.23
2018-01-19T07:27:52.280Z,53.25
2018-01-19T07:28:52.284Z,53.3
2018-01-19T07:29:52.645Z,53.27
2018-01-19T07:30:52.284Z,53.52
2018-01-19T07:31:52.288Z,53.28
2018-01-19T07:32:52.282Z,53.26
2018-01-19T07:33:52.325Z,53.45
2018-01-19T07:34:52.288Z,53.51
2018-01-19T07:35:52.314Z,53.57
2018-01-19T07:36:52.283Z,53.54
2018-01-19T07:37:52.295Z,53.17
2018-01-19T07:38:52.286Z,53.21
2018-01-19T07:39:52.291Z,53.21
2018-01-19T07:40:52.296Z,53.12
2018-01-19T07:41:52.350Z,53.13
2018-01-19T07:42:52.291Z,53.52
2018-01-19T07:43:52.295Z,53.37
2018-01-19T07:44:52.293Z,53.08
2018-01-19T07:45:52.294Z,53.12
2018-01-19T07:46:52.300Z,53.06
2018-01-19T07:47:52.674Z,53.08
2018-01-19T07:48:52.293Z,53.19
2018-01-19T07:49:52.296Z,52.91
2018-01-19T07:50:52.296Z,53.38
2018-01-19T07:51:52.298Z,53.11
2018-01-19T07:52:52.304Z,53.54
2018-01-19T07:53:52.768Z,53.43
2018-01-19T07:54:52.305Z,53.34
2018-01-19T07:55:52.299Z,53.42
2018-01-19T07:56:52.304Z,53.25
2018-01-19T07:57:52.296Z,53.14
2018-01-19T07:58:52.307Z,53.36
2018-01-19T07:59:52.335Z,52.98
2018-01-19T08:00:52.305Z,53.36
2018-01-19T08:01:52.304Z,53.28
2018-01-19T08:02:52.305Z,53.31
2018-01-19T08:03:52.309Z,53.25
2018-01-19T08:04:52.324Z,52.87
2018-01-19T08:05:52.451Z,52.97
2018-01-19T08:06:52.312Z,53
2018-01-19T08:07:52.310Z,52.99
2018-01-19T08:08:52.317Z,53.37
2018-01-19T08:09:52.351Z,53.33
2018-01-19T08:10:52.318Z,52.81
2018-01-19T08:11:52.439Z,53.04
2018-01-19T08:12:52.317Z,52.81
2018-01-19T08:13:52.314Z,53.11
2018-01-19T08:14:52.318Z,52.78
2018-01-19T08:15:52.317Z,53.22
2018-01-19T08:16:52.318Z,53
2018-01-19T08:17:52.710Z,52.87
2018-01-19T08:18:52.332Z,53.29
2018-01-19T08:19:52.325Z,53.19
2018-01-19T08:20:52.326Z,52.74
2018-01-19T08:21:52.324Z,53.4
2018-01-19T08:22:52.321Z,53.25
2018-01-19T08:23:52.767Z,52.82
2018-01-19T08:24:52.331Z,52.82
2018-01-19T08:25:52.325Z,53.28
2018-01-19T08:26:52.322Z,52.53
2018-01-19T08:27:52.328Z,53.08
2018-01-19T08:28:52.326Z,52.72
2018-01-19T08:29:52.377Z,53.13
2018-01-19T08:30:52.333Z,53.2
2018-01-19T08:31:52.332Z,53.2
2018-01-19T08:32:52.337Z,52.71
2018-01-19T08:33:52.332Z,52.89
2018-01-19T08:34:52.390Z,53.03
2018-01-19T08:35:52.341Z,52.85
2018-01-19T08:36:52.330Z,53.21
2018-01-19T08:37:52.337Z,53.21
2018-01-19T08:38:52.335Z,53.05
2018-01-19T08:39:52.337Z,53.23
2018-01-19T08:40:52.371Z,52.66
2018-01-19T08:41:52.345Z,53.03
2018-01-19T08:42:52.340Z,52.61
2018-01-19T08:43:52.337Z,52.7
2018-01-19T08:44:52.342Z,52.73
2018-01-19T08:45:52.346Z,52.92
2018-01-19T08:46:52.472Z,52.98
2018-01-19T08:47:52.352Z,52.64
2018-01-19T08:48:52.348Z,52.77
2018-01-19T08:49:52.342Z,52.73
2018-01-19T08:50:52.341Z,52.72
2018-01-19T08:51:52.347Z,52.89
2018-01-19T08:52:52.401Z,53.03
2018-01-19T08:53:52.351Z,52.74
2018-01-19T08:54:52.358Z,52.77
2018-01-19T08:55:52.346Z,52.77
2018-01-19T08:56:52.351Z,52.62
2018-01-19T08:57:52.352Z,53.01
2018-01-19T08:58:52.746Z,52.64
2018-01-19T08:59:52.354Z,52.7
2018-01-19T09:00:52.353Z,52.58
2018-01-19T09:01:52.360Z,53.09
2018-01-19T09:02:52.357Z,52.91
2018-01-19T09:03:52.358Z,52.97
2018-01-19T09:04:52.381Z,52.58
2018-01-19T09:05:52.355Z,52.9
2018-01-19T09:06:52.360Z,53.01
2018-01-19T09:07:52.353Z,52.54
2018-01-19T09:08:52.356Z,52.98
2018-01-19T09:09:52.361Z,52.83
2018-01-19T09:10:52.400Z,52.3
2018-01-19T09:11:52.357Z,52.95
2018-01-19T09:12:52.486Z,53.12
2018-01-19T09:13:52.364Z,52.63
2018-01-19T09:14:52.360Z,52.56
2018-01-19T09:15:52.366Z,52.97
2018-01-19T09:16:52.364Z,52.96
2018-01-19T09:17:52.422Z,52.69
2018-01-19T09:18:52.364Z,52.57
2018-01-19T09:19:52.361Z,52.9
2018-01-19T09:20:52.374Z,52.53
2018-01-19T09:21:52.497Z,52.89
2018-01-19T09:22:52.373Z,52.54
2018-01-19T09:23:52.373Z,52.87
2018-01-19T09:24:52.370Z,52.89
2018-01-19T09:25:52.383Z,53.06
2018-01-19T09:26:52.376Z,52.56
2018-01-19T09:27:52.505Z,52.5
2018-01-19T09:28:52.372Z,52.97
2018-01-19T09:29:52.381Z,52.59
2018-01-19T09:30:52.381Z,52.51
2018-01-19T09:31:52.379Z,52.43
2018-01-19T09:32:52.386Z,52.94
2018-01-19T09:33:52.416Z,52.93
2018-01-19T09:34:52.376Z,52.81
2018-01-19T09:35:52.382Z,52.35
2018-01-19T09:36:52.380Z,52.56
2018-01-19T09:37:52.383Z,52.86
2018-01-19T09:38:52.389Z,52.26
2018-01-19T09:39:52.767Z,52.43
2018-01-19T09:40:52.386Z,52.94
2018-01-19T09:41:52.382Z,52.69
2018-01-19T09:42:52.383Z,52.84
2018-01-19T09:43:52.383Z,52.82
2018-01-19T09:44:52.389Z,52.74
2018-01-19T09:45:52.869Z,52.5
2018-01-19T09:46:52.389Z,52.42
2018-01-19T09:47:52.401Z,52.49
2018-01-19T09:48:52.397Z,52.72
2018-01-19T09:49:52.399Z,52.89
2018-01-19T09:50:52.395Z,52.79
2018-01-19T09:51:52.512Z,52.88
2018-01-19T09:52:52.392Z,52.47
2018-01-19T09:53:52.393Z,52.4
2018-01-19T09:54:52.393Z,52.63
2018-01-19T09:55:52.398Z,52.41
2018-01-19T09:56:52.392Z,52.49
2018-01-19T09:57:52.439Z,52.65
2018-01-19T09:58:52.398Z,52.59
2018-01-19T09:59:52.399Z,52.43
2018-01-19T10:00:52.405Z,52.45
2018-01-19T10:01:52.399Z,52.75
2018-01-19T10:02:52.405Z,52.37
2018-01-19T10:03:52.432Z,52.8
2018-01-19T10:04:52.401Z,52.79
2018-01-19T10:05:52.404Z,53.02
2018-01-19T10:06:52.410Z,52.37
2018-01-19T10:07:52.408Z,52.69
2018-01-19T10:08:52.407Z,52.84
2018-01-19T10:09:52.486Z,52.32
2018-01-19T10:10:52.406Z,52.71
2018-01-19T10:11:52.411Z,52.47
2018-01-19T10:12:52.408Z,52.24
2018-01-19T10:13:52.411Z,52.34
2018-01-19T10:14:52.407Z,52.65
2018-01-19T10:15:52.860Z,52.43
2018-01-19T10:16:52.416Z,52.3
2018-01-19T10:17:52.411Z,52.81
2018-01-19T10:18:52.420Z,52.52
2018-01-19T10:19:52.416Z,52.4
2018-01-19T10:20:52.423Z,52.57
2018-01-19T10:21:52.451Z,52.72
2018-01-19T10:22:52.419Z,52.37
2018-01-19T10:23:52.414Z,52.5
2018-01-19T10:24:52.415Z,52.71
2018-01-19T10:25:52.417Z,52.79
2018-01-19T10:26:52.419Z,52.46
2018-01-19T10:27:52.528Z,52.88
2018-01-19T10:28:52.421Z,52.67
2018-01-19T10:29:52.420Z,52.46
2018-01-19T10:30:52.428Z,52.71
2018-01-19T10:31:52.428Z,52.82
2018-01-19T10:32:52.552Z,52.43
2018-01-19T10:33:52.424Z,52.5
2018-01-19T10:34:52.430Z,52.93
2018-01-19T10:35:52.427Z,52.51
2018-01-19T10:36:52.430Z,52.46
2018-01-19T10:37:52.430Z,52.46
2018-01-19T10:38:52.464Z,52.46
2018-01-19T10:39:52.437Z,52.27
2018-01-19T10:40:52.434Z,52.84
2018-01-19T10:41:52.435Z,52.35
2018-01-19T10:42:52.430Z,52.73
2018-01-19T10:43:52.444Z,52.2
2018-01-19T10:44:52.460Z,52.55
2018-01-19T10:45:52.440Z,52.74
2018-01-19T10:46:52.435Z,52.21
2018-01-19T10:47:52.434Z,52.32
2018-01-19T10:48:52.449Z,52.28
2018-01-19T10:49:52.455Z,52.44
2018-01-19T10:50:52.472Z,52.43
2018-01-19T10:51:52.435Z,52.25
2018-01-19T10:52:52.444Z,52.66
2018-01-19T10:53:52.442Z,52.28
2018-01-19T10:54:52.440Z,52.47
2018-01-19T10:55:52.441Z,52.62
2018-01-19T10:56:52.964Z,52.6
2018-01-19T10:57:52.448Z,52.63
2018-01-19T10:58:52.448Z,52.11
2018-01-19T10:59:52.447Z,52.6
2018-01-19T11:00:52.445Z,52.1
2018-01-19T11:01:52.445Z,52.53
2018-01-19T11:02:52.477Z,52.43
2018-01-19T11:03:52.446Z,52.08
2018-01-19T11:04:52.449Z,52.48
2018-01-19T11:05:52.448Z,52.48
2018-01-19T11:06:52.456Z,52.36
2018-01-19T11:07:52.458Z,52.13
2018-01-19T11:08:52.571Z,52.39
2018-01-19T11:09:52.456Z,52.23
2018-01-19T11:10:52.474Z,52.47
2018-01-19T11:11:52.463Z,52.33
2018-01-19T11:12:52.455Z,51.91
2018-01-19T11:13:52.452Z,52.28
2018-01-19T11:14:52.578Z,51.96
2018-01-19T11:15:52.465Z,52.05
2018-01-19T11:16:52.462Z,52.41
2018-01-19T11:17:52.460Z,52.2
2018-01-19T11:18:52.462Z,52.36
2018-01-19T11:19:52.470Z,52.3
2018-01-19T11:20:52.858Z,52.51
2018-01-19T11:21:52.469Z,52.29
2018-01-19T11:22:52.464Z,52.13
2018-01-19T11:23:52.461Z,51.94
2018-01-19T11:24:52.469Z,51.79
2018-01-19T11:25:52.463Z,52.4
2018-01-19T11:26:52.505Z,51.91
2018-01-19T11:27:52.470Z,51.88
2018-01-19T11:28:52.470Z,52.3
2018-01-19T11:29:52.472Z,51.95
2018-01-19T11:30:52.479Z,52.05
2018-01-19T11:31:52.477Z,52.13
2018-01-19T11:32:52.899Z,51.93
2018-01-19T11:33:52.478Z,51.99
2018-01-19T11:34:52.479Z,51.87
2018-01-19T11:35:52.475Z,52.33
2018-01-19T11:36:52.470Z,52.34
2018-01-19T11:37:52.476Z,52.46
2018-01-19T11:38:52.522Z,52.12
2018-01-19T11:39:52.475Z,52.08
2018-01-19T11:40:52.474Z,52.16
2018-01-19T11:41:52.476Z,52.35
2018-01-19T11:42:52.474Z,52.36
2018-01-19T11:43:52.479Z,52.16
2018-01-19T11:44:52.520Z,52.13
2018-01-19T11:45:52.484Z,52.27
2018-01-19T11:46:52.486Z,52.37
2018-01-19T11:47:52.486Z,52.34
2018-01-19T11:48:52.482Z,52.39
2018-01-19T11:49:52.483Z,52.05
2018-01-19T11:50:52.608Z,51.94
2018-01-19T11:51:52.490Z,51.94
2018-01-19T11:52:52.492Z,51.79
2018-01-19T11:53:52.489Z,51.88
2018-01-19T11:54:52.485Z,51.88
2018-01-19T11:55:52.558Z,51.81
2018-01-19T11:56:52.520Z,52.08
2018-01-19T11:57:52.488Z,52.2
2018-01-19T11:58:52.495Z,52.11
2018-01-19T11:59:52.488Z,52.16
2018-01-19T12:00:52.491Z,52.08
2018-01-19T12:01:52.496Z,51.98
2018-01-19T12:02:52.606Z,52.21
2018-01-19T12:03:52.502Z,52.19
2018-01-19T12:04:52.504Z,51.79
2018-01-19T12:05:52.554Z,51.83
2018-01-19T12:06:52.505Z,52.05
2018-01-19T12:07:52.502Z,51.91
2018-01-19T12:08:52.578Z,52.41
2018-01-19T12:09:52.514Z,51.72
2018-01-19T12:10:52.496Z,52.24
2018-01-19T12:11:52.504Z,52.04
2018-01-19T12:12:52.511Z,52.22
2018-01-19T12:13:52.501Z,51.74
2018-01-19T12:14:52.621Z,52.06
2018-01-19T12:15:52.512Z,51.99
2018-01-19T12:16:52.506Z,51.83
2018-01-19T12:17:52.510Z,52.23
2018-01-19T12:18:52.561Z,52.08
2018-01-19T12:19:52.508Z,51.87
2018-01-19T12:20:52.763Z,51.64
2018-01-19T12:21:52.511Z,52.4
2018-01-19T12:22:52.510Z,52.04
2018-01-19T12:23:52.520Z,52.4
2018-01-19T12:24:52.513Z,52.42
2018-01-19T12:25:52.511Z,52.09
2018-01-19T12:26:52.923Z,51.54
2018-01-19T12:27:52.509Z,52.38
2018-01-19T12:28:52.513Z,52.15
2018-01-19T12:29:52.513Z,52.04
2018-01-19T12:30:52.515Z,51.79
2018-01-19T12:31:52.521Z,51.68
2018-01-19T12:32:52.573Z,51.79
2018-01-19T12:33:52.521Z,52.34
2018-01-19T12:34:52.519Z,52.71
2018-01-19T12:35:52.525Z,52.62
2018-01-19T12:36:52.530Z,52.74
2018-01-19T12:37:52.525Z,52.45
2018-01-19T12:38:52.553Z,52.33
2018-01-19T12:39:52.529Z,52.2
2018-01-19T12:40:52.529Z,52.78
2018-01-19T12:41:52.528Z,52.64
2018-01-19T12:42:52.523Z,52.29
2018-01-19T12:43:52.534Z,52.26
2018-01-19T12:44:52.660Z,52.29
2018-01-19T12:45:52.528Z,52.27
2018-01-19T12:46:52.527Z,55.88
2018-01-19T12:47:52.530Z,57.53
2018-01-19T12:48:52.531Z,61.44
2018-01-19T12:49:52.533Z,57.9
2018-01-19T12:50:52.735Z,56.9
2018-01-19T12:51:52.536Z,63.11
2018-01-19T12:52:52.583Z,59.78
2018-01-19T12:53:52.538Z,57.2
2018-01-19T12:54:52.551Z,55.41
2018-01-19T12:55:52.534Z,57.5